sensor_id;sensor_type;location;lat;lon;timestamp;temperature;humidity
46898;DHT22;32646;50.958;6.258;2022-12-29T00:00:14;11.60;99.90
46898;DHT22;32646;50.958;6.258;2022-12-29T00:02:41;11.70;99.90
46898;DHT22;32646;50.958;6.258;2022-12-29T00:05:08;11.70;99.90
46898;DHT22;32646;50.958;6.258;2022-12-29T00:07:35;11.60;99.90
46898;DHT22;32646;50.958;6.258;2022-12-29T00:10:02;11.60;99.90
46898;DHT22;32646;50.958;6.258;2022-12-29T00:12:28;11.70;99.90
46898;DHT22;32646;50.958;6.258;2022-12-29T00:14:55;11.70;99.90
46898;DHT22;32646;50.958;6.258;2022-12-29T00:17:21;11.70;99.90
46898;DHT22;32646;50.958;6.258;2022-12-29T00:19:48;11.70;99.90
46898;DHT22;32646;50.958;6.258;2022-12-29T00:22:14;11.70;99.90
46898;DHT22;32646;50.958;6.258;2022-12-29T00:24:41;11.70;99.90
46898;DHT22;32646;50.958;6.258;2022-12-29T00:27:11;11.80;99.90
46898;DHT22;32646;50.958;6.258;2022-12-29T00:29:37;11.80;99.90
46898;DHT22;32646;50.958;6.258;2022-12-29T00:32:06;11.80;99.90
46898;DHT22;32646;50.958;6.258;2022-12-29T00:34:33;11.80;99.90
46898;DHT22;32646;50.958;6.258;2022-12-29T00:37:00;11.70;99.90
46898;DHT22;32646;50.958;6.258;2022-12-29T00:39:26;11.80;99.90
46898;DHT22;32646;50.958;6.258;2022-12-29T00:41:53;11.80;99.90
46898;DHT22;32646;50.958;6.258;2022-12-29T00:44:20;11.70;99.90
46898;DHT22;32646;50.958;6.258;2022-12-29T00:46:46;11.80;99.90
46898;DHT22;32646;50.958;6.258;2022-12-29T00:49:13;11.70;99.90
46898;DHT22;32646;50.958;6.258;2022-12-29T00:51:40;11.70;99.90
46898;DHT22;32646;50.958;6.258;2022-12-29T00:54:07;11.80;99.90
46898;DHT22;32646;50.958;6.258;2022-12-29T00:56:33;11.80;99.90
46898;DHT22;32646;50.958;6.258;2022-12-29T00:59:01;11.80;99.90
46898;DHT22;32646;50.958;6.258;2022-12-29T01:01:29;11.60;99.90
46898;DHT22;32646;50.958;6.258;2022-12-29T01:03:55;11.60;99.90
46898;DHT22;32646;50.958;6.258;2022-12-29T01:06:29;11.60;99.90
46898;DHT22;32646;50.958;6.258;2022-12-29T01:08:56;11.60;99.90
46898;DHT22;32646;50.958;6.258;2022-12-29T01:11:22;11.50;99.90
46898;DHT22;32646;50.958;6.258;2022-12-29T01:13:49;11.50;99.90
46898;DHT22;32646;50.958;6.258;2022-12-29T01:16:15;11.60;99.90
46898;DHT22;32646;50.958;6.258;2022-12-29T01:18:43;11.60;99.90
46898;DHT22;32646;50.958;6.258;2022-12-29T01:21:10;11.70;99.90
46898;DHT22;32646;50.958;6.258;2022-12-29T01:23:36;11.70;99.90
46898;DHT22;32646;50.958;6.258;2022-12-29T01:26:10;11.80;99.90
46898;DHT22;32646;50.958;6.258;2022-12-29T01:28:37;11.80;99.90
46898;DHT22;32646;50.958;6.258;2022-12-29T01:31:03;11.70;99.90
46898;DHT22;32646;50.958;6.258;2022-12-29T01:33:30;11.70;99.90
46898;DHT22;32646;50.958;6.258;2022-12-29T01:36:12;11.60;99.90
46898;DHT22;32646;50.958;6.258;2022-12-29T01:38:39;11.60;99.90
46898;DHT22;32646;50.958;6.258;2022-12-29T01:41:07;11.60;99.90
46898;DHT22;32646;50.958;6.258;2022-12-29T01:49:02;11.60;99.90
46898;DHT22;32646;50.958;6.258;2022-12-29T01:51:33;11.60;99.90
46898;DHT22;32646;50.958;6.258;2022-12-29T01:54:02;11.70;99.90
46898;DHT22;32646;50.958;6.258;2022-12-29T01:56:31;11.60;99.90
46898;DHT22;32646;50.958;6.258;2022-12-29T01:59:05;11.80;99.90
46898;DHT22;32646;50.958;6.258;2022-12-29T02:01:33;11.70;99.90
46898;DHT22;32646;50.958;6.258;2022-12-29T02:04:01;11.80;99.90
46898;DHT22;32646;50.958;6.258;2022-12-29T02:06:41;11.80;99.90
46898;DHT22;32646;50.958;6.258;2022-12-29T02:09:09;11.80;99.90
46898;DHT22;32646;50.958;6.258;2022-12-29T02:11:36;11.80;99.90
46898;DHT22;32646;50.958;6.258;2022-12-29T02:14:11;11.80;99.90
46898;DHT22;32646;50.958;6.258;2022-12-29T02:16:55;11.70;99.90
46898;DHT22;32646;50.958;6.258;2022-12-29T02:22:42;11.90;99.90
46898;DHT22;32646;50.958;6.258;2022-12-29T02:28:29;11.90;99.90
46898;DHT22;32646;50.958;6.258;2022-12-29T02:31:24;11.80;99.90
46898;DHT22;32646;50.958;6.258;2022-12-29T02:42:11;11.90;99.90
46898;DHT22;32646;50.958;6.258;2022-12-29T02:45:12;11.80;99.90
46898;DHT22;32646;50.958;6.258;2022-12-29T02:47:50;11.50;99.90
46898;DHT22;32646;50.958;6.258;2022-12-29T02:50:29;11.40;99.90
46898;DHT22;32646;50.958;6.258;2022-12-29T02:53:05;11.20;99.90
46898;DHT22;32646;50.958;6.258;2022-12-29T02:55:32;11.20;99.90
46898;DHT22;32646;50.958;6.258;2022-12-29T03:00:39;11.40;99.90
46898;DHT22;32646;50.958;6.258;2022-12-29T03:08:46;11.50;99.90
46898;DHT22;32646;50.958;6.258;2022-12-29T03:11:15;11.50;99.90
46898;DHT22;32646;50.958;6.258;2022-12-29T03:13:46;11.40;99.90
46898;DHT22;32646;50.958;6.258;2022-12-29T03:16:35;11.50;99.90
46898;DHT22;32646;50.958;6.258;2022-12-29T03:19:10;11.70;99.90
46898;DHT22;32646;50.958;6.258;2022-12-29T03:21:43;11.80;99.90
46898;DHT22;32646;50.958;6.258;2022-12-29T03:24:11;11.80;99.90
46898;DHT22;32646;50.958;6.258;2022-12-29T03:26:40;11.90;99.90
46898;DHT22;32646;50.958;6.258;2022-12-29T03:29:08;11.80;99.90
46898;DHT22;32646;50.958;6.258;2022-12-29T03:31:37;11.80;99.90
46898;DHT22;32646;50.958;6.258;2022-12-29T03:34:05;11.80;99.90
46898;DHT22;32646;50.958;6.258;2022-12-29T03:36:39;11.80;99.90
46898;DHT22;32646;50.958;6.258;2022-12-29T03:39:11;11.80;99.90
46898;DHT22;32646;50.958;6.258;2022-12-29T03:41:41;11.80;99.90
46898;DHT22;32646;50.958;6.258;2022-12-29T03:44:08;11.90;99.90
46898;DHT22;32646;50.958;6.258;2022-12-29T03:46:35;11.90;99.90
46898;DHT22;32646;50.958;6.258;2022-12-29T03:49:02;11.90;99.90
46898;DHT22;32646;50.958;6.258;2022-12-29T03:51:29;11.90;99.90
46898;DHT22;32646;50.958;6.258;2022-12-29T03:53:55;12.00;99.90
46898;DHT22;32646;50.958;6.258;2022-12-29T03:56:22;11.90;99.90
46898;DHT22;32646;50.958;6.258;2022-12-29T03:58:48;11.80;99.90
46898;DHT22;32646;50.958;6.258;2022-12-29T04:01:15;11.90;99.90
46898;DHT22;32646;50.958;6.258;2022-12-29T04:03:43;12.00;99.90
46898;DHT22;32646;50.958;6.258;2022-12-29T04:06:10;11.90;99.90
46898;DHT22;32646;50.958;6.258;2022-12-29T04:08:36;11.90;99.90
46898;DHT22;32646;50.958;6.258;2022-12-29T04:11:03;11.80;99.90
46898;DHT22;32646;50.958;6.258;2022-12-29T04:13:29;12.00;99.90
46898;DHT22;32646;50.958;6.258;2022-12-29T04:15:56;11.90;99.90
46898;DHT22;32646;50.958;6.258;2022-12-29T04:18:22;12.00;99.90
46898;DHT22;32646;50.958;6.258;2022-12-29T04:20:49;12.00;99.90
46898;DHT22;32646;50.958;6.258;2022-12-29T04:23:15;11.90;99.90
46898;DHT22;32646;50.958;6.258;2022-12-29T04:25:45;11.90;99.90
46898;DHT22;32646;50.958;6.258;2022-12-29T04:28:13;11.90;99.90
46898;DHT22;32646;50.958;6.258;2022-12-29T04:30:40;11.80;99.90
46898;DHT22;32646;50.958;6.258;2022-12-29T04:33:06;11.80;99.90
46898;DHT22;32646;50.958;6.258;2022-12-29T04:35:33;11.90;99.90
46898;DHT22;32646;50.958;6.258;2022-12-29T04:38:00;11.80;99.90
46898;DHT22;32646;50.958;6.258;2022-12-29T04:40:26;11.60;99.90
46898;DHT22;32646;50.958;6.258;2022-12-29T04:42:53;11.70;99.90
46898;DHT22;32646;50.958;6.258;2022-12-29T04:45:20;11.70;99.90
46898;DHT22;32646;50.958;6.258;2022-12-29T04:47:46;11.80;99.90
46898;DHT22;32646;50.958;6.258;2022-12-29T04:50:13;11.80;99.90
46898;DHT22;32646;50.958;6.258;2022-12-29T04:52:39;11.70;99.90
46898;DHT22;32646;50.958;6.258;2022-12-29T04:55:06;11.70;99.90
46898;DHT22;32646;50.958;6.258;2022-12-29T04:57:33;11.80;99.90
46898;DHT22;32646;50.958;6.258;2022-12-29T04:59:59;11.80;99.90
46898;DHT22;32646;50.958;6.258;2022-12-29T05:02:26;11.80;99.90
46898;DHT22;32646;50.958;6.258;2022-12-29T05:04:53;11.80;99.90
46898;DHT22;32646;50.958;6.258;2022-12-29T05:07:20;11.80;99.90
46898;DHT22;32646;50.958;6.258;2022-12-29T05:09:46;11.90;99.90
46898;DHT22;32646;50.958;6.258;2022-12-29T05:12:13;11.80;99.90
46898;DHT22;32646;50.958;6.258;2022-12-29T05:14:39;11.80;99.90
46898;DHT22;32646;50.958;6.258;2022-12-29T05:17:06;11.90;99.90
46898;DHT22;32646;50.958;6.258;2022-12-29T05:19:33;11.80;99.90
46898;DHT22;32646;50.958;6.258;2022-12-29T05:21:59;11.70;99.90
46898;DHT22;32646;50.958;6.258;2022-12-29T05:24:26;11.80;99.90
46898;DHT22;32646;50.958;6.258;2022-12-29T05:26:52;11.70;99.90
46898;DHT22;32646;50.958;6.258;2022-12-29T05:29:19;11.60;99.90
46898;DHT22;32646;50.958;6.258;2022-12-29T05:31:45;11.70;99.90
46898;DHT22;32646;50.958;6.258;2022-12-29T05:34:12;11.60;99.90
46898;DHT22;32646;50.958;6.258;2022-12-29T05:36:39;11.60;99.90
46898;DHT22;32646;50.958;6.258;2022-12-29T05:39:06;11.60;99.90
46898;DHT22;32646;50.958;6.258;2022-12-29T05:41:33;11.40;99.90
46898;DHT22;32646;50.958;6.258;2022-12-29T05:44:00;11.40;99.90
46898;DHT22;32646;50.958;6.258;2022-12-29T05:46:27;11.50;99.90
46898;DHT22;32646;50.958;6.258;2022-12-29T05:48:53;11.50;99.90
46898;DHT22;32646;50.958;6.258;2022-12-29T05:51:20;11.50;99.90
46898;DHT22;32646;50.958;6.258;2022-12-29T05:53:46;11.30;99.90
46898;DHT22;32646;50.958;6.258;2022-12-29T05:56:13;11.30;99.90
46898;DHT22;32646;50.958;6.258;2022-12-29T05:58:40;11.30;99.90
46898;DHT22;32646;50.958;6.258;2022-12-29T06:01:06;11.30;99.90
46898;DHT22;32646;50.958;6.258;2022-12-29T06:03:33;11.30;99.90
46898;DHT22;32646;50.958;6.258;2022-12-29T06:06:00;11.30;99.90
46898;DHT22;32646;50.958;6.258;2022-12-29T06:08:26;11.40;99.90
46898;DHT22;32646;50.958;6.258;2022-12-29T06:10:53;11.30;99.90
46898;DHT22;32646;50.958;6.258;2022-12-29T06:13:19;11.20;99.90
46898;DHT22;32646;50.958;6.258;2022-12-29T06:15:48;11.20;99.90
46898;DHT22;32646;50.958;6.258;2022-12-29T06:18:15;11.20;99.90
46898;DHT22;32646;50.958;6.258;2022-12-29T06:20:46;11.20;99.90
46898;DHT22;32646;50.958;6.258;2022-12-29T06:23:12;11.20;99.90
46898;DHT22;32646;50.958;6.258;2022-12-29T06:25:39;11.20;99.90
46898;DHT22;32646;50.958;6.258;2022-12-29T06:28:06;11.30;99.90
46898;DHT22;32646;50.958;6.258;2022-12-29T06:30:33;11.30;99.90
46898;DHT22;32646;50.958;6.258;2022-12-29T06:32:59;11.20;99.90
46898;DHT22;32646;50.958;6.258;2022-12-29T06:35:26;11.40;99.90
46898;DHT22;32646;50.958;6.258;2022-12-29T06:37:53;11.30;99.90
46898;DHT22;32646;50.958;6.258;2022-12-29T06:40:19;11.20;99.90
46898;DHT22;32646;50.958;6.258;2022-12-29T06:42:46;11.30;99.90
46898;DHT22;32646;50.958;6.258;2022-12-29T06:45:12;11.30;99.90
46898;DHT22;32646;50.958;6.258;2022-12-29T06:47:39;11.40;99.90
46898;DHT22;32646;50.958;6.258;2022-12-29T06:50:06;11.40;99.90
46898;DHT22;32646;50.958;6.258;2022-12-29T06:52:32;11.50;99.90
46898;DHT22;32646;50.958;6.258;2022-12-29T06:54:59;11.50;99.90
46898;DHT22;32646;50.958;6.258;2022-12-29T06:57:25;11.40;99.90
46898;DHT22;32646;50.958;6.258;2022-12-29T06:59:52;11.30;99.90
46898;DHT22;32646;50.958;6.258;2022-12-29T07:02:18;11.20;99.90
46898;DHT22;32646;50.958;6.258;2022-12-29T07:04:45;11.20;99.90
46898;DHT22;32646;50.958;6.258;2022-12-29T07:07:12;11.10;99.90
46898;DHT22;32646;50.958;6.258;2022-12-29T07:09:38;11.10;99.90
46898;DHT22;32646;50.958;6.258;2022-12-29T07:12:05;11.00;99.90
46898;DHT22;32646;50.958;6.258;2022-12-29T07:14:32;11.00;99.90
46898;DHT22;32646;50.958;6.258;2022-12-29T07:17:07;11.00;99.90
46898;DHT22;32646;50.958;6.258;2022-12-29T07:19:34;11.00;99.90
46898;DHT22;32646;50.958;6.258;2022-12-29T07:22:01;10.90;99.90
46898;DHT22;32646;50.958;6.258;2022-12-29T07:24:27;11.10;99.90
46898;DHT22;32646;50.958;6.258;2022-12-29T07:26:54;11.20;99.90
46898;DHT22;32646;50.958;6.258;2022-12-29T07:29:20;11.10;99.90
46898;DHT22;32646;50.958;6.258;2022-12-29T07:31:47;11.00;99.90
46898;DHT22;32646;50.958;6.258;2022-12-29T07:34:13;11.00;99.90
46898;DHT22;32646;50.958;6.258;2022-12-29T07:36:40;11.00;99.90
46898;DHT22;32646;50.958;6.258;2022-12-29T07:39:06;11.20;99.90
46898;DHT22;32646;50.958;6.258;2022-12-29T07:41:33;11.10;99.90
46898;DHT22;32646;50.958;6.258;2022-12-29T07:43:59;11.20;99.90
46898;DHT22;32646;50.958;6.258;2022-12-29T07:46:26;11.00;99.90
46898;DHT22;32646;50.958;6.258;2022-12-29T07:49:13;11.00;99.90
46898;DHT22;32646;50.958;6.258;2022-12-29T07:51:39;11.00;99.90
46898;DHT22;32646;50.958;6.258;2022-12-29T07:54:06;11.00;99.90
46898;DHT22;32646;50.958;6.258;2022-12-29T07:56:33;11.00;99.90
46898;DHT22;32646;50.958;6.258;2022-12-29T07:58:59;11.00;99.90
46898;DHT22;32646;50.958;6.258;2022-12-29T08:01:26;11.00;99.90
46898;DHT22;32646;50.958;6.258;2022-12-29T08:03:52;11.10;99.90
46898;DHT22;32646;50.958;6.258;2022-12-29T08:06:23;11.10;99.90
46898;DHT22;32646;50.958;6.258;2022-12-29T08:08:49;11.00;99.90
46898;DHT22;32646;50.958;6.258;2022-12-29T08:11:16;11.00;99.90
46898;DHT22;32646;50.958;6.258;2022-12-29T08:13:42;11.00;99.90
46898;DHT22;32646;50.958;6.258;2022-12-29T08:16:09;11.10;99.90
46898;DHT22;32646;50.958;6.258;2022-12-29T08:18:36;11.10;99.90
46898;DHT22;32646;50.958;6.258;2022-12-29T08:21:03;11.20;99.90
46898;DHT22;32646;50.958;6.258;2022-12-29T08:23:30;11.10;99.90
46898;DHT22;32646;50.958;6.258;2022-12-29T08:26:02;11.10;99.90
46898;DHT22;32646;50.958;6.258;2022-12-29T08:28:29;11.20;99.90
46898;DHT22;32646;50.958;6.258;2022-12-29T08:31:01;11.10;99.90
46898;DHT22;32646;50.958;6.258;2022-12-29T08:33:28;11.10;99.90
46898;DHT22;32646;50.958;6.258;2022-12-29T08:36:03;11.10;99.90
46898;DHT22;32646;50.958;6.258;2022-12-29T08:38:30;11.10;99.90
46898;DHT22;32646;50.958;6.258;2022-12-29T08:40:57;11.10;99.90
46898;DHT22;32646;50.958;6.258;2022-12-29T08:43:25;11.00;99.90
46898;DHT22;32646;50.958;6.258;2022-12-29T08:45:52;10.80;99.90
46898;DHT22;32646;50.958;6.258;2022-12-29T08:48:18;10.80;99.90
46898;DHT22;32646;50.958;6.258;2022-12-29T08:50:46;10.70;99.90
46898;DHT22;32646;50.958;6.258;2022-12-29T08:53:12;10.70;99.90
46898;DHT22;32646;50.958;6.258;2022-12-29T08:55:39;10.80;99.90
46898;DHT22;32646;50.958;6.258;2022-12-29T08:58:06;11.00;99.90
46898;DHT22;32646;50.958;6.258;2022-12-29T09:00:32;11.20;99.90
46898;DHT22;32646;50.958;6.258;2022-12-29T09:02:59;11.30;99.90
46898;DHT22;32646;50.958;6.258;2022-12-29T09:05:26;11.30;99.90
46898;DHT22;32646;50.958;6.258;2022-12-29T09:07:52;11.40;99.90
46898;DHT22;32646;50.958;6.258;2022-12-29T09:10:19;11.50;99.90
46898;DHT22;32646;50.958;6.258;2022-12-29T09:12:45;11.60;99.90
46898;DHT22;32646;50.958;6.258;2022-12-29T09:15:12;11.70;99.90
46898;DHT22;32646;50.958;6.258;2022-12-29T09:17:38;11.90;99.90
46898;DHT22;32646;50.958;6.258;2022-12-29T09:20:05;11.80;99.90
46898;DHT22;32646;50.958;6.258;2022-12-29T09:22:32;11.80;99.90
46898;DHT22;32646;50.958;6.258;2022-12-29T09:24:59;11.60;99.90
46898;DHT22;32646;50.958;6.258;2022-12-29T09:27:25;11.70;99.90
46898;DHT22;32646;50.958;6.258;2022-12-29T09:29:52;11.70;99.90
46898;DHT22;32646;50.958;6.258;2022-12-29T09:32:18;11.70;99.90
46898;DHT22;32646;50.958;6.258;2022-12-29T09:34:47;11.70;99.90
46898;DHT22;32646;50.958;6.258;2022-12-29T09:37:14;11.70;99.90
46898;DHT22;32646;50.958;6.258;2022-12-29T09:39:40;11.80;99.90
46898;DHT22;32646;50.958;6.258;2022-12-29T09:42:26;11.80;99.90
46898;DHT22;32646;50.958;6.258;2022-12-29T09:45:15;11.80;99.90
46898;DHT22;32646;50.958;6.258;2022-12-29T09:47:44;11.80;99.90
46898;DHT22;32646;50.958;6.258;2022-12-29T09:50:24;11.80;99.90
46898;DHT22;32646;50.958;6.258;2022-12-29T09:52:59;12.00;99.90
46898;DHT22;32646;50.958;6.258;2022-12-29T09:55:39;12.20;99.90
46898;DHT22;32646;50.958;6.258;2022-12-29T09:58:12;12.30;99.90
46898;DHT22;32646;50.958;6.258;2022-12-29T10:00:48;12.30;99.90
46898;DHT22;32646;50.958;6.258;2022-12-29T10:03:23;12.00;99.90
46898;DHT22;32646;50.958;6.258;2022-12-29T10:06:00;11.80;99.90
46898;DHT22;32646;50.958;6.258;2022-12-29T10:11:35;11.50;99.90
46898;DHT22;32646;50.958;6.258;2022-12-29T10:14:29;11.60;99.90
46898;DHT22;32646;50.958;6.258;2022-12-29T10:25:26;12.00;99.90
46898;DHT22;32646;50.958;6.258;2022-12-29T10:27:59;12.00;99.90
46898;DHT22;32646;50.958;6.258;2022-12-29T10:30:26;11.90;99.90
46898;DHT22;32646;50.958;6.258;2022-12-29T10:33:02;12.00;99.90
46898;DHT22;32646;50.958;6.258;2022-12-29T10:35:36;12.30;99.90
46898;DHT22;32646;50.958;6.258;2022-12-29T10:43:20;12.30;99.90
46898;DHT22;32646;50.958;6.258;2022-12-29T10:45:48;12.40;99.90
46898;DHT22;32646;50.958;6.258;2022-12-29T10:48:33;12.60;99.90
46898;DHT22;32646;50.958;6.258;2022-12-29T10:51:05;12.40;99.90
46898;DHT22;32646;50.958;6.258;2022-12-29T10:53:45;12.60;99.90
46898;DHT22;32646;50.958;6.258;2022-12-29T10:58:49;12.50;99.90
46898;DHT22;32646;50.958;6.258;2022-12-29T11:01:17;12.60;99.80
46898;DHT22;32646;50.958;6.258;2022-12-29T11:06:51;12.30;99.90
46898;DHT22;32646;50.958;6.258;2022-12-29T11:09:34;12.30;99.90
46898;DHT22;32646;50.958;6.258;2022-12-29T11:12:27;12.10;99.90
46898;DHT22;32646;50.958;6.258;2022-12-29T11:17:56;11.80;99.90
46898;DHT22;32646;50.958;6.258;2022-12-29T11:20:35;11.70;99.90
46898;DHT22;32646;50.958;6.258;2022-12-29T11:23:03;11.70;99.90
46898;DHT22;32646;50.958;6.258;2022-12-29T11:25:31;11.90;99.90
46898;DHT22;32646;50.958;6.258;2022-12-29T11:28:15;11.70;99.90
46898;DHT22;32646;50.958;6.258;2022-12-29T11:30:44;11.60;99.90
46898;DHT22;32646;50.958;6.258;2022-12-29T11:33:11;11.70;99.90
46898;DHT22;32646;50.958;6.258;2022-12-29T11:35:42;11.60;99.90
46898;DHT22;32646;50.958;6.258;2022-12-29T11:38:34;11.60;99.90
46898;DHT22;32646;50.958;6.258;2022-12-29T11:41:02;11.50;99.90
46898;DHT22;32646;50.958;6.258;2022-12-29T11:43:36;11.30;99.90
46898;DHT22;32646;50.958;6.258;2022-12-29T11:46:04;11.20;99.90
46898;DHT22;32646;50.958;6.258;2022-12-29T11:48:41;11.20;99.90
46898;DHT22;32646;50.958;6.258;2022-12-29T11:51:10;11.50;99.90
46898;DHT22;32646;50.958;6.258;2022-12-29T11:53:38;11.50;99.90
46898;DHT22;32646;50.958;6.258;2022-12-29T11:56:08;11.50;99.90
46898;DHT22;32646;50.958;6.258;2022-12-29T11:58:36;11.50;99.90
46898;DHT22;32646;50.958;6.258;2022-12-29T12:01:13;11.50;99.90
46898;DHT22;32646;50.958;6.258;2022-12-29T12:03:45;11.40;99.90
46898;DHT22;32646;50.958;6.258;2022-12-29T12:06:16;11.40;99.90
46898;DHT22;32646;50.958;6.258;2022-12-29T12:08:59;11.40;99.90
46898;DHT22;32646;50.958;6.258;2022-12-29T12:11:37;11.30;99.90
46898;DHT22;32646;50.958;6.258;2022-12-29T12:14:19;11.30;99.90
46898;DHT22;32646;50.958;6.258;2022-12-29T12:16:53;11.40;99.90
46898;DHT22;32646;50.958;6.258;2022-12-29T12:19:59;11.30;99.90
46898;DHT22;32646;50.958;6.258;2022-12-29T12:22:37;11.30;99.90
46898;DHT22;32646;50.958;6.258;2022-12-29T12:25:18;11.30;99.90
46898;DHT22;32646;50.958;6.258;2022-12-29T12:27:51;11.20;99.90
46898;DHT22;32646;50.958;6.258;2022-12-29T12:30:22;11.30;99.90
46898;DHT22;32646;50.958;6.258;2022-12-29T12:35:26;11.30;99.90
46898;DHT22;32646;50.958;6.258;2022-12-29T12:38:22;11.20;99.90
46898;DHT22;32646;50.958;6.258;2022-12-29T13:00:00;11.20;99.90
46898;DHT22;32646;50.958;6.258;2022-12-29T13:02:37;11.10;99.90
46898;DHT22;32646;50.958;6.258;2022-12-29T13:19:10;10.90;99.90
46898;DHT22;32646;50.958;6.258;2022-12-29T13:27:55;10.90;99.90
46898;DHT22;32646;50.958;6.258;2022-12-29T13:30:30;10.80;99.90
46898;DHT22;32646;50.958;6.258;2022-12-29T13:33:32;10.90;99.90
46898;DHT22;32646;50.958;6.258;2022-12-29T13:36:44;10.90;99.90
46898;DHT22;32646;50.958;6.258;2022-12-29T13:41:51;10.80;99.90
46898;DHT22;32646;50.958;6.258;2022-12-29T13:44:33;10.80;99.90
46898;DHT22;32646;50.958;6.258;2022-12-29T13:47:28;10.80;99.90
46898;DHT22;32646;50.958;6.258;2022-12-29T13:49:58;10.80;99.90
46898;DHT22;32646;50.958;6.258;2022-12-29T13:52:51;10.80;99.90
46898;DHT22;32646;50.958;6.258;2022-12-29T13:55:29;10.70;99.90
46898;DHT22;32646;50.958;6.258;2022-12-29T14:03:46;10.50;99.90
46898;DHT22;32646;50.958;6.258;2022-12-29T14:06:26;10.50;99.90
46898;DHT22;32646;50.958;6.258;2022-12-29T14:09:04;10.60;99.90
46898;DHT22;32646;50.958;6.258;2022-12-29T14:11:33;10.50;99.90
46898;DHT22;32646;50.958;6.258;2022-12-29T14:14:21;10.50;99.90
46898;DHT22;32646;50.958;6.258;2022-12-29T14:16:49;10.60;99.90
46898;DHT22;32646;50.958;6.258;2022-12-29T14:19:26;10.60;99.90
46898;DHT22;32646;50.958;6.258;2022-12-29T14:21:59;10.60;99.90
46898;DHT22;32646;50.958;6.258;2022-12-29T14:26:59;10.60;99.90
46898;DHT22;32646;50.958;6.258;2022-12-29T14:31:55;10.50;99.90
46898;DHT22;32646;50.958;6.258;2022-12-29T14:37:01;10.50;99.90
46898;DHT22;32646;50.958;6.258;2022-12-29T14:39:40;10.50;99.90
46898;DHT22;32646;50.958;6.258;2022-12-29T14:47:34;10.40;99.90
46898;DHT22;32646;50.958;6.258;2022-12-29T14:50:07;10.40;99.90
46898;DHT22;32646;50.958;6.258;2022-12-29T14:52:50;10.40;99.90
46898;DHT22;32646;50.958;6.258;2022-12-29T14:55:48;10.40;99.90
46898;DHT22;32646;50.958;6.258;2022-12-29T14:58:32;10.30;99.90
46898;DHT22;32646;50.958;6.258;2022-12-29T15:00:59;10.40;99.90
46898;DHT22;32646;50.958;6.258;2022-12-29T15:03:30;10.30;99.90
46898;DHT22;32646;50.958;6.258;2022-12-29T15:06:07;10.30;99.90
46898;DHT22;32646;50.958;6.258;2022-12-29T15:08:52;10.30;99.90
46898;DHT22;32646;50.958;6.258;2022-12-29T15:11:23;10.30;99.90
46898;DHT22;32646;50.958;6.258;2022-12-29T15:13:50;10.30;99.90
46898;DHT22;32646;50.958;6.258;2022-12-29T15:16:31;10.30;99.90
46898;DHT22;32646;50.958;6.258;2022-12-29T15:18:59;10.30;99.90
46898;DHT22;32646;50.958;6.258;2022-12-29T15:21:29;10.30;99.90
46898;DHT22;32646;50.958;6.258;2022-12-29T15:23:56;10.20;99.90
46898;DHT22;32646;50.958;6.258;2022-12-29T15:26:36;10.10;99.90
46898;DHT22;32646;50.958;6.258;2022-12-29T15:29:03;10.00;99.90
46898;DHT22;32646;50.958;6.258;2022-12-29T15:31:30;10.00;99.90
46898;DHT22;32646;50.958;6.258;2022-12-29T15:34:12;10.10;99.90
46898;DHT22;32646;50.958;6.258;2022-12-29T15:36:40;10.10;99.90
46898;DHT22;32646;50.958;6.258;2022-12-29T15:39:39;10.00;99.90
46898;DHT22;32646;50.958;6.258;2022-12-29T15:44:46;9.90;99.90
46898;DHT22;32646;50.958;6.258;2022-12-29T15:47:24;9.80;99.90
46898;DHT22;32646;50.958;6.258;2022-12-29T15:50:07;9.80;99.90
46898;DHT22;32646;50.958;6.258;2022-12-29T15:52:39;9.70;99.90
46898;DHT22;32646;50.958;6.258;2022-12-29T15:55:09;9.60;99.90
46898;DHT22;32646;50.958;6.258;2022-12-29T15:57:44;9.60;99.90
46898;DHT22;32646;50.958;6.258;2022-12-29T16:00:28;9.60;99.90
46898;DHT22;32646;50.958;6.258;2022-12-29T16:02:58;9.60;99.90
46898;DHT22;32646;50.958;6.258;2022-12-29T16:05:32;9.60;99.90
46898;DHT22;32646;50.958;6.258;2022-12-29T16:08:00;9.50;99.90
46898;DHT22;32646;50.958;6.258;2022-12-29T16:10:36;9.50;99.90
46898;DHT22;32646;50.958;6.258;2022-12-29T16:13:28;9.40;99.90
46898;DHT22;32646;50.958;6.258;2022-12-29T16:16:01;9.40;99.90
46898;DHT22;32646;50.958;6.258;2022-12-29T16:18:31;9.40;99.90
46898;DHT22;32646;50.958;6.258;2022-12-29T16:20:59;9.50;99.90
46898;DHT22;32646;50.958;6.258;2022-12-29T16:23:28;9.40;99.90
46898;DHT22;32646;50.958;6.258;2022-12-29T16:25:56;9.40;99.90
46898;DHT22;32646;50.958;6.258;2022-12-29T16:28:26;9.40;99.90
46898;DHT22;32646;50.958;6.258;2022-12-29T16:31:24;9.40;99.90
46898;DHT22;32646;50.958;6.258;2022-12-29T16:33:54;9.40;99.90
46898;DHT22;32646;50.958;6.258;2022-12-29T16:36:33;9.40;99.90
46898;DHT22;32646;50.958;6.258;2022-12-29T16:39:31;9.60;99.90
46898;DHT22;32646;50.958;6.258;2022-12-29T16:41:59;9.60;99.90
46898;DHT22;32646;50.958;6.258;2022-12-29T16:44:30;9.50;99.90
46898;DHT22;32646;50.958;6.258;2022-12-29T16:47:01;9.30;99.90
46898;DHT22;32646;50.958;6.258;2022-12-29T16:49:30;9.30;99.90
46898;DHT22;32646;50.958;6.258;2022-12-29T16:51:57;9.40;99.90
46898;DHT22;32646;50.958;6.258;2022-12-29T16:54:34;9.50;99.90
46898;DHT22;32646;50.958;6.258;2022-12-29T16:57:02;9.50;99.90
46898;DHT22;32646;50.958;6.258;2022-12-29T16:59:39;9.60;99.90
46898;DHT22;32646;50.958;6.258;2022-12-29T17:02:13;9.50;99.90
46898;DHT22;32646;50.958;6.258;2022-12-29T17:04:41;9.50;99.90
46898;DHT22;32646;50.958;6.258;2022-12-29T17:07:16;9.60;99.90
46898;DHT22;32646;50.958;6.258;2022-12-29T17:09:43;9.60;99.90
46898;DHT22;32646;50.958;6.258;2022-12-29T17:12:15;9.50;99.90
46898;DHT22;32646;50.958;6.258;2022-12-29T17:14:47;9.30;99.90
46898;DHT22;32646;50.958;6.258;2022-12-29T17:17:16;9.40;99.90
46898;DHT22;32646;50.958;6.258;2022-12-29T17:19:51;9.20;99.90
46898;DHT22;32646;50.958;6.258;2022-12-29T17:22:22;9.30;99.90
46898;DHT22;32646;50.958;6.258;2022-12-29T17:24:48;9.30;99.90
46898;DHT22;32646;50.958;6.258;2022-12-29T17:29:48;9.30;99.90
46898;DHT22;32646;50.958;6.258;2022-12-29T17:32:15;9.20;99.90
46898;DHT22;32646;50.958;6.258;2022-12-29T17:34:42;8.90;99.90
46898;DHT22;32646;50.958;6.258;2022-12-29T17:39:51;8.80;99.90
46898;DHT22;32646;50.958;6.258;2022-12-29T17:42:24;8.60;99.90
46898;DHT22;32646;50.958;6.258;2022-12-29T17:44:51;8.20;99.90
46898;DHT22;32646;50.958;6.258;2022-12-29T17:47:18;8.00;99.90
46898;DHT22;32646;50.958;6.258;2022-12-29T17:49:44;7.70;99.90
46898;DHT22;32646;50.958;6.258;2022-12-29T17:52:12;7.50;99.90
46898;DHT22;32646;50.958;6.258;2022-12-29T17:54:46;7.50;99.90
46898;DHT22;32646;50.958;6.258;2022-12-29T17:57:14;7.60;99.90
46898;DHT22;32646;50.958;6.258;2022-12-29T17:59:41;7.50;99.90